createdAt,value
2019-02-20T00:00:02.002Z,97845.81
2019-02-20T00:01:07.376Z,97843.17
2019-02-20T00:02:11.101Z,97844.19
2019-02-20T00:03:14.747Z,97846.81
2019-02-20T00:04:18.385Z,97846.30
2019-02-20T00:05:22.127Z,97849.22
2019-02-20T00:06:25.773Z,97840.45
2019-02-20T00:07:29.487Z,97842.32
2019-02-20T00:08:33.237Z,97848.41
2019-02-20T00:09:37.485Z,97834.67
2019-02-20T00:10:41.234Z,97842.06
2019-02-20T00:11:45.225Z,97840.73
2019-02-20T00:12:48.921Z,97842.31
2019-02-20T00:13:52.673Z,97846.30
2019-02-20T00:14:56.387Z,97840.72
2019-02-20T00:16:00.120Z,97839.38
2019-02-20T00:17:03.831Z,97841.45
2019-02-20T00:18:07.475Z,97841.67
2019-02-20T00:19:11.113Z,97842.70
2019-02-20T00:20:14.829Z,97845.63
2019-02-20T00:21:18.572Z,97844.86
2019-02-20T00:22:22.214Z,97842.23
2019-02-20T00:23:25.870Z,97844.08
2019-02-20T00:24:29.514Z,97845.38
2019-02-20T00:25:33.315Z,97843.50
2019-02-20T00:26:37.018Z,97847.42
2019-02-20T00:27:40.659Z,97851.89
2019-02-20T00:28:44.369Z,97847.64
2019-02-20T00:29:48.149Z,97846.09
2019-02-20T00:30:51.792Z,97843.97
2019-02-20T00:31:55.464Z,97847.67
2019-02-20T00:32:59.116Z,97850.07
2019-02-20T00:34:02.817Z,97847.39
2019-02-20T00:35:07.932Z,97852.96
2019-02-20T00:36:13.240Z,97846.81
2019-02-20T00:37:16.917Z,97846.78
2019-02-20T00:38:20.493Z,97848.62
2019-02-20T00:39:24.499Z,97845.14
2019-02-20T00:40:28.224Z,97850.47
2019-02-20T00:41:31.851Z,97846.50
2019-02-20T00:42:35.529Z,97850.75
2019-02-20T00:43:40.873Z,97849.15
2019-02-20T00:44:48.998Z,97846.50
2019-02-20T00:46:03.079Z,97842.80
2019-02-20T00:47:24.999Z,97844.09
2019-02-20T00:48:32.974Z,97844.09
2019-02-20T00:49:38.293Z,97836.95
2019-02-20T00:50:43.604Z,97840.96
2019-02-20T00:51:48.876Z,97838.84
2019-02-20T00:53:00.128Z,97835.63
2019-02-20T00:54:05.423Z,97843.02
2019-02-20T00:55:09.826Z,97835.11
2019-02-20T00:56:13.504Z,97843.33
2019-02-20T00:57:17.138Z,97841.48
2019-02-20T00:58:20.789Z,97839.05
2019-02-20T00:59:24.497Z,97842.47
2019-02-20T01:00:28.146Z,97835.36
2019-02-20T01:01:31.820Z,97846.75
2019-02-20T01:02:35.528Z,97839.29
2019-02-20T01:03:39.340Z,97838.22
2019-02-20T01:04:42.969Z,97843.19
2019-02-20T01:05:46.612Z,97845.25
2019-02-20T01:06:50.292Z,97836.47
2019-02-20T01:07:53.927Z,97835.15
2019-02-20T01:08:57.648Z,97837.80
2019-02-20T01:10:01.358Z,97833.06
2019-02-20T01:11:05.369Z,97841.00
2019-02-20T01:12:09.322Z,97836.27
2019-02-20T01:13:13.005Z,97833.38
2019-02-20T01:14:16.657Z,97830.17
2019-02-20T01:15:20.369Z,97837.06
2019-02-20T01:16:24.072Z,97833.06
2019-02-20T01:17:27.730Z,97829.86
2019-02-20T01:18:31.410Z,97828.81
2019-02-20T01:19:35.009Z,97829.37
2019-02-20T01:20:38.910Z,97829.33
2019-02-20T01:21:42.551Z,97831.73
2019-02-20T01:22:46.236Z,97830.62
2019-02-20T01:23:51.513Z,97820.52
2019-02-20T01:24:55.077Z,97833.78
2019-02-20T01:25:58.725Z,97822.92
2019-02-20T01:27:02.278Z,97827.89
2019-02-20T01:28:05.878Z,97827.58
2019-02-20T01:29:09.518Z,97826.81
2019-02-20T01:30:13.765Z,97828.37
2019-02-20T01:31:17.414Z,97819.92
2019-02-20T01:32:21.046Z,97828.37
2019-02-20T01:33:24.722Z,97824.69
2019-02-20T01:34:28.358Z,97824.69
2019-02-20T01:35:31.998Z,97826.48
2019-02-20T01:36:35.950Z,97826.45
2019-02-20T01:37:39.624Z,97825.41
2019-02-20T01:38:44.786Z,97828.05
2019-02-20T01:39:49.557Z,97828.73
2019-02-20T01:40:53.461Z,97829.70
2019-02-20T01:41:57.106Z,97828.34
2019-02-20T01:43:00.737Z,97827.20
2019-02-20T01:44:04.382Z,97827.20
2019-02-20T01:45:08.841Z,97824.52
2019-02-20T01:46:12.401Z,97825.84
2019-02-20T01:47:16.033Z,97824.05
2019-02-20T01:48:19.666Z,97826.22
2019-02-20T01:49:23.303Z,97815.41
2019-02-20T01:50:26.909Z,97818.06
2019-02-20T01:51:30.538Z,97817.06
2019-02-20T01:52:34.173Z,97814.66
2019-02-20T01:53:37.823Z,97817.06
2019-02-20T01:54:41.383Z,97816.22
2019-02-20T01:55:45.072Z,97815.41
2019-02-20T01:56:48.699Z,97814.60
2019-02-20T01:57:52.355Z,97821.16
2019-02-20T01:58:55.979Z,97808.47
2019-02-20T01:59:59.626Z,97806.87
2019-02-20T02:01:03.325Z,97812.44
2019-02-20T02:02:06.979Z,97814.85
2019-02-20T02:03:10.555Z,97815.84
2019-02-20T02:04:14.197Z,97819.18
2019-02-20T02:05:17.758Z,97818.63
2019-02-20T02:06:21.418Z,97820.21
2019-02-20T02:07:25.065Z,97814.37
2019-02-20T02:08:28.699Z,97827.16
2019-02-20T02:09:32.346Z,97821.30
2019-02-20T02:10:35.984Z,97817.86
2019-02-20T02:11:39.631Z,97816.26
2019-02-20T02:12:43.208Z,97819.52
2019-02-20T02:13:46.767Z,97818.20
2019-02-20T02:14:50.324Z,97817.58
2019-02-20T02:15:54.440Z,97819.66
2019-02-20T02:16:58.114Z,97817.53
2019-02-20T02:18:01.744Z,97813.62
2019-02-20T02:19:05.485Z,97817.62
2019-02-20T02:20:10.138Z,97820.52
2019-02-20T02:21:13.768Z,97816.55
2019-02-20T02:22:17.423Z,97819.70
2019-02-20T02:23:21.057Z,97816.50
2019-02-20T02:24:24.693Z,97818.57
2019-02-20T02:25:28.494Z,97818.90
2019-02-20T02:26:32.144Z,97819.14
2019-02-20T02:27:35.788Z,97818.28
2019-02-20T02:28:39.413Z,97816.81
2019-02-20T02:29:43.058Z,97818.63
2019-02-20T02:30:46.757Z,97816.22
2019-02-20T02:31:50.399Z,97820.23
2019-02-20T02:32:54.128Z,97824.48
2019-02-20T02:33:57.764Z,97827.59
2019-02-20T02:35:01.392Z,97821.50
2019-02-20T02:36:05.336Z,97820.52
2019-02-20T02:37:08.958Z,97817.09
2019-02-20T02:38:12.599Z,97822.14
2019-02-20T02:39:16.242Z,97823.51
2019-02-20T02:40:19.888Z,97821.39
2019-02-20T02:41:23.555Z,97823.47
2019-02-20T02:42:27.181Z,97823.23
2019-02-20T02:43:30.854Z,97822.70
2019-02-20T02:44:34.425Z,97820.77
2019-02-20T02:45:38.066Z,97820.25
2019-02-20T02:46:41.616Z,97822.13
2019-02-20T02:47:45.224Z,97818.97
2019-02-20T02:48:48.900Z,97824.25
2019-02-20T02:49:52.526Z,97820.46
2019-02-20T02:50:56.156Z,97822.77
2019-02-20T02:51:59.800Z,97822.72
2019-02-20T02:53:03.437Z,97821.05
2019-02-20T02:54:07.105Z,97823.17
2019-02-20T02:55:10.831Z,97826.63
2019-02-20T02:56:14.469Z,97826.09
2019-02-20T02:57:18.112Z,97829.47
2019-02-20T02:58:21.737Z,97825.80
2019-02-20T02:59:25.422Z,97825.56
2019-02-20T03:00:29.045Z,97828.52
2019-02-20T03:01:32.607Z,97827.77
2019-02-20T03:02:36.632Z,97823.80
2019-02-20T03:03:40.267Z,97822.77
2019-02-20T03:04:44.221Z,97825.12
2019-02-20T03:05:48.225Z,97826.95
2019-02-20T03:06:51.806Z,97821.63
2019-02-20T03:07:55.440Z,97829.08
2019-02-20T03:08:59.072Z,97821.66
2019-02-20T03:10:02.749Z,97825.00
2019-02-20T03:11:06.792Z,97827.34
2019-02-20T03:12:10.435Z,97825.16
2019-02-20T03:13:14.157Z,97829.53
2019-02-20T03:14:17.792Z,97829.97
2019-02-20T03:15:21.460Z,97834.33
2019-02-20T03:16:25.092Z,97832.64
2019-02-20T03:17:28.788Z,97832.80
2019-02-20T03:18:32.434Z,97833.09
2019-02-20T03:19:36.654Z,97834.41
2019-02-20T03:20:40.291Z,97833.67
2019-02-20T03:21:43.937Z,97832.41
2019-02-20T03:22:47.562Z,97832.41
2019-02-20T03:23:51.206Z,97837.61
2019-02-20T03:24:54.849Z,97842.81
2019-02-20T03:25:58.456Z,97840.48
2019-02-20T03:27:02.028Z,97842.81
2019-02-20T03:28:05.669Z,97840.17
2019-02-20T03:29:09.344Z,97849.13
2019-02-20T03:30:13.077Z,97842.23
2019-02-20T03:31:16.735Z,97844.35
2019-02-20T03:32:20.379Z,97845.77
2019-02-20T03:33:24.018Z,97843.63
2019-02-20T03:34:27.720Z,97844.28
2019-02-20T03:35:31.277Z,97841.20
2019-02-20T03:36:35.097Z,97843.21
2019-02-20T03:37:38.660Z,97833.17
2019-02-20T03:38:42.291Z,97837.19
2019-02-20T03:39:45.855Z,97836.97
2019-02-20T03:40:49.493Z,97838.58
2019-02-20T03:41:53.179Z,97834.69
2019-02-20T03:42:56.817Z,97836.31
2019-02-20T03:44:00.450Z,97835.44
2019-02-20T03:45:04.702Z,97837.83
2019-02-20T03:46:08.332Z,97833.46
2019-02-20T03:47:11.969Z,97835.34
2019-02-20T03:48:15.617Z,97835.70
2019-02-20T03:49:19.253Z,97837.89
2019-02-20T03:50:22.944Z,97840.25
2019-02-20T03:51:26.573Z,97841.05
2019-02-20T03:52:30.195Z,97838.08
2019-02-20T03:53:33.769Z,97838.63
2019-02-20T03:54:37.436Z,97840.64
2019-02-20T03:55:41.059Z,97842.03
2019-02-20T03:56:44.827Z,97833.30
2019-02-20T03:57:48.459Z,97839.83
2019-02-20T03:58:52.015Z,97840.11
2019-02-20T03:59:56.140Z,97841.14
2019-02-20T04:00:59.775Z,97835.87
2019-02-20T04:02:03.404Z,97845.41
2019-02-20T04:03:07.387Z,97843.85
2019-02-20T04:04:11.023Z,97839.66
2019-02-20T04:05:14.702Z,97838.81
2019-02-20T04:06:18.329Z,97841.00
2019-02-20T04:07:21.969Z,97847.08
2019-02-20T04:08:25.613Z,97845.85
2019-02-20T04:09:29.255Z,97839.75
2019-02-20T04:10:32.926Z,97842.03
2019-02-20T04:11:36.567Z,97840.48
2019-02-20T04:12:40.537Z,97843.34
2019-02-20T04:13:44.194Z,97845.63
2019-02-20T04:14:47.834Z,97835.78
2019-02-20T04:15:51.517Z,97839.94
2019-02-20T04:16:55.155Z,97838.88
2019-02-20T04:17:58.785Z,97838.13
2019-02-20T04:19:02.364Z,97835.49
2019-02-20T04:20:07.592Z,97834.38
2019-02-20T04:21:11.270Z,97833.53
2019-02-20T04:22:14.828Z,97838.05
2019-02-20T04:23:18.480Z,97836.06
2019-02-20T04:24:22.115Z,97833.97
2019-02-20T04:25:25.751Z,97832.86
2019-02-20T04:26:29.418Z,97836.01
2019-02-20T04:27:33.059Z,97834.69
2019-02-20T04:28:36.781Z,97826.83
2019-02-20T04:29:40.802Z,97829.00
2019-02-20T04:30:44.459Z,97830.66
2019-02-20T04:31:48.166Z,97835.00
2019-02-20T04:32:51.808Z,97832.12
2019-02-20T04:33:55.449Z,97830.14
2019-02-20T04:34:59.020Z,97827.50
2019-02-20T04:36:02.731Z,97828.66
2019-02-20T04:37:06.760Z,97832.54
2019-02-20T04:38:10.401Z,97833.78
2019-02-20T04:39:14.007Z,97839.05
2019-02-20T04:40:17.650Z,97837.16
2019-02-20T04:41:21.299Z,97838.84
2019-02-20T04:42:24.971Z,97840.45
2019-02-20T04:43:28.614Z,97836.78
2019-02-20T04:44:32.610Z,97842.36
2019-02-20T04:45:36.241Z,97839.86
2019-02-20T04:46:39.874Z,97838.47
2019-02-20T04:47:43.546Z,97839.73
2019-02-20T04:48:47.180Z,97834.82
2019-02-20T04:49:50.811Z,97837.84
2019-02-20T04:50:54.544Z,97843.09
2019-02-20T04:51:58.571Z,97837.84
2019-02-20T04:53:02.159Z,97846.61
2019-02-20T04:54:12.931Z,97847.56
2019-02-20T04:55:11.094Z,97845.31
2019-02-20T04:56:14.745Z,97839.23
2019-02-20T04:57:18.388Z,97845.37
2019-02-20T04:58:23.161Z,97848.55
2019-02-20T04:59:26.797Z,97848.29
2019-02-20T05:00:30.851Z,97854.00
2019-02-20T05:01:34.608Z,97849.95
2019-02-20T05:02:38.318Z,97850.19
2019-02-20T05:03:41.957Z,97855.95
2019-02-20T05:04:45.595Z,97852.02
2019-02-20T05:05:49.241Z,97858.92
2019-02-20T05:06:52.902Z,97849.19
2019-02-20T05:07:56.484Z,97850.11
2019-02-20T05:09:00.192Z,97854.69
2019-02-20T05:10:03.930Z,97853.60
2019-02-20T05:11:07.587Z,97859.77
2019-02-20T05:12:11.219Z,97859.97
2019-02-20T05:13:14.806Z,97859.65
2019-02-20T05:14:18.790Z,97861.05
2019-02-20T05:15:22.433Z,97862.97
2019-02-20T05:16:25.954Z,97863.23
2019-02-20T05:17:29.578Z,97857.41
2019-02-20T05:18:33.233Z,97857.61
2019-02-20T05:19:36.901Z,97859.68
2019-02-20T05:20:40.559Z,97867.09
2019-02-20T05:21:44.182Z,97861.48
2019-02-20T05:22:47.750Z,97862.00
2019-02-20T05:23:51.387Z,97864.28
2019-02-20T05:24:55.067Z,97871.16
2019-02-20T05:25:58.696Z,97864.38
2019-02-20T05:27:02.336Z,97868.16
2019-02-20T05:28:05.981Z,97871.91
2019-02-20T05:29:09.626Z,97873.97
2019-02-20T05:30:13.611Z,97875.58
2019-02-20T05:31:17.262Z,97876.69
2019-02-20T05:32:20.899Z,97876.32
2019-02-20T05:33:24.535Z,97882.63
2019-02-20T05:34:28.252Z,97879.59
2019-02-20T05:35:31.964Z,97886.41
2019-02-20T05:36:35.621Z,97881.50
2019-02-20T05:37:39.739Z,97882.63
2019-02-20T05:38:43.478Z,97891.08
2019-02-20T05:39:47.057Z,97889.59
2019-02-20T05:40:50.662Z,97895.09
2019-02-20T05:41:54.225Z,97894.57
2019-02-20T05:42:58.231Z,97898.81
2019-02-20T05:44:01.878Z,97895.66
2019-02-20T05:45:06.512Z,97906.44
2019-02-20T05:46:10.183Z,97904.25
2019-02-20T05:47:13.831Z,97909.35
2019-02-20T05:48:17.406Z,97909.27
2019-02-20T05:49:21.047Z,97917.09
2019-02-20T05:50:24.611Z,97914.34
2019-02-20T05:51:28.849Z,97911.05
2019-02-20T05:52:32.943Z,97910.06
2019-02-20T05:53:36.511Z,97917.23
2019-02-20T05:54:40.073Z,97915.63
2019-02-20T05:55:43.740Z,97916.15
2019-02-20T05:56:47.407Z,97918.27
2019-02-20T05:57:51.032Z,97915.09
2019-02-20T05:58:54.598Z,97911.97
2019-02-20T05:59:58.162Z,97914.83
2019-02-20T06:01:01.863Z,97918.09
2019-02-20T06:02:05.573Z,97920.94
2019-02-20T06:03:09.155Z,97915.06
2019-02-20T06:04:12.858Z,97917.44
2019-02-20T06:05:16.510Z,97923.86
2019-02-20T06:06:20.188Z,97919.91
2019-02-20T06:07:23.837Z,97926.49
2019-02-20T06:08:27.468Z,97925.09
2019-02-20T06:09:31.117Z,97929.13
2019-02-20T06:10:34.759Z,97926.95
2019-02-20T06:11:38.436Z,97930.08
2019-02-20T06:12:42.060Z,97928.87
2019-02-20T06:13:45.678Z,97934.69
2019-02-20T06:14:49.315Z,97934.29
2019-02-20T06:15:52.946Z,97938.91
2019-02-20T06:16:56.542Z,97933.97
2019-02-20T06:18:00.354Z,97930.53
2019-02-20T06:19:04.406Z,97934.75
2019-02-20T06:20:09.751Z,97935.47
2019-02-20T06:21:13.383Z,97936.06
2019-02-20T06:22:17.054Z,97937.67
2019-02-20T06:23:20.703Z,97930.50
2019-02-20T06:24:24.339Z,97938.06
2019-02-20T06:25:28.088Z,97936.77
2019-02-20T06:26:31.770Z,97934.77
2019-02-20T06:27:35.428Z,97943.41
2019-02-20T06:28:39.131Z,97947.27
2019-02-20T06:29:42.774Z,97944.34
2019-02-20T06:30:46.440Z,97948.45
2019-02-20T06:31:50.081Z,97946.38
2019-02-20T06:32:53.849Z,97942.30
2019-02-20T06:33:57.500Z,97944.05
2019-02-20T06:35:01.069Z,97944.19
2019-02-20T06:36:04.718Z,97947.48
2019-02-20T06:37:08.361Z,97951.06
2019-02-20T06:38:12.042Z,97949.05
2019-02-20T06:39:15.676Z,97952.98
2019-02-20T06:40:19.318Z,97949.45
2019-02-20T06:41:23.033Z,97952.17
2019-02-20T06:42:26.987Z,97950.94
2019-02-20T06:43:30.561Z,97951.51
2019-02-20T06:44:34.193Z,97953.16
2019-02-20T06:45:37.842Z,97954.02
2019-02-20T06:46:41.473Z,97957.82
2019-02-20T06:47:45.115Z,97961.33
2019-02-20T06:48:48.706Z,97958.25
2019-02-20T06:49:52.342Z,97958.06
2019-02-20T06:50:55.982Z,97957.97
2019-02-20T06:51:59.626Z,97958.05
2019-02-20T06:53:03.202Z,97960.56
2019-02-20T06:54:07.210Z,97961.36
2019-02-20T06:55:12.532Z,97961.55
2019-02-20T06:56:16.275Z,97964.77
2019-02-20T06:57:19.929Z,97960.28
2019-02-20T06:58:23.501Z,97969.00
2019-02-20T06:59:27.169Z,97964.53
2019-02-20T07:00:30.882Z,97966.77
2019-02-20T07:01:34.521Z,97966.47
2019-02-20T07:02:38.165Z,97960.52
2019-02-20T07:03:42.184Z,97964.06
2019-02-20T07:05:22.315Z,97957.78
2019-02-20T07:06:34.865Z,97957.17
2019-02-20T07:07:50.505Z,97960.00
2019-02-20T07:09:04.569Z,97966.62
2019-02-20T07:10:29.430Z,97963.16
2019-02-20T07:11:41.453Z,97958.67
2019-02-20T07:12:50.768Z,97966.11
2019-02-20T07:13:57.319Z,97960.44
2019-02-20T07:15:16.155Z,97960.61
2019-02-20T07:16:34.777Z,97957.34
2019-02-20T07:17:44.053Z,97954.73
2019-02-20T07:18:53.742Z,97958.07
2019-02-20T07:20:15.266Z,97955.66
2019-02-20T07:21:21.816Z,97953.27
2019-02-20T07:22:51.157Z,97950.66
2019-02-20T07:23:57.698Z,97945.95
2019-02-20T07:25:04.248Z,97955.78
2019-02-20T07:26:41.382Z,97951.77
2019-02-20T07:28:03.237Z,97948.39
2019-02-20T07:29:15.345Z,97954.20
2019-02-20T07:30:18.983Z,97945.36
2019-02-20T07:31:22.634Z,97950.47
2019-02-20T07:32:26.378Z,97948.08
2019-02-20T07:33:30.050Z,97940.12
2019-02-20T07:34:34.097Z,97941.76
2019-02-20T07:35:37.738Z,97941.49
2019-02-20T07:36:41.380Z,97935.67
2019-02-20T07:37:45.020Z,97935.16
2019-02-20T07:38:48.699Z,97935.95
2019-02-20T07:39:52.444Z,97937.02
2019-02-20T07:40:56.029Z,97931.45
2019-02-20T07:41:59.657Z,97931.47
2019-02-20T07:43:03.309Z,97929.33
2019-02-20T07:44:07.012Z,97928.78
2019-02-20T07:45:11.159Z,97929.06
2019-02-20T07:46:14.809Z,97929.30
2019-02-20T07:47:18.399Z,97927.42
2019-02-20T07:48:22.276Z,97929.30
2019-02-20T07:49:25.967Z,97925.53
2019-02-20T07:50:29.603Z,97922.52
2019-02-20T07:51:33.259Z,97926.16
2019-02-20T07:52:36.828Z,97923.16
2019-02-20T07:53:40.485Z,97917.02
2019-02-20T07:54:44.324Z,97919.05
2019-02-20T07:55:47.967Z,97916.02
2019-02-20T07:56:51.602Z,97921.47
2019-02-20T07:57:55.234Z,97915.25
2019-02-20T07:58:58.871Z,97913.03
2019-02-20T08:00:02.546Z,97915.17
2019-02-20T08:01:06.188Z,97907.09
2019-02-20T08:02:09.843Z,97911.69
2019-02-20T08:03:13.577Z,97907.53
2019-02-20T08:04:17.274Z,97907.52
2019-02-20T08:05:20.953Z,97906.25
2019-02-20T08:06:24.959Z,97907.02
2019-02-20T08:07:28.596Z,97903.13
2019-02-20T08:08:32.247Z,97903.33
2019-02-20T08:09:35.879Z,97904.33
2019-02-20T08:10:39.625Z,97901.30
2019-02-20T08:11:43.265Z,97899.50
2019-02-20T08:12:46.899Z,97894.88
2019-02-20T08:13:50.566Z,97893.47
2019-02-20T08:14:54.105Z,97890.14
2019-02-20T08:15:57.786Z,97889.78
2019-02-20T08:17:01.413Z,97893.38
2019-02-20T08:18:05.049Z,97896.48
2019-02-20T08:19:08.681Z,97886.04
2019-02-20T08:20:12.390Z,97892.81
2019-02-20T08:21:15.993Z,97898.90
2019-02-20T08:22:19.641Z,97893.61
2019-02-20T08:23:23.298Z,97891.78
2019-02-20T08:24:26.928Z,97889.56
2019-02-20T08:25:30.584Z,97892.67
2019-02-20T08:26:34.315Z,97887.75
2019-02-20T08:27:37.963Z,97883.53
2019-02-20T08:28:41.530Z,97887.05
2019-02-20T08:29:45.488Z,97889.48
2019-02-20T08:30:49.131Z,97881.67
2019-02-20T08:31:53.914Z,97887.38
2019-02-20T08:32:57.680Z,97889.44
2019-02-20T08:34:01.331Z,97885.86
2019-02-20T08:35:06.270Z,97886.70
2019-02-20T08:36:09.914Z,97883.88
2019-02-20T08:37:13.588Z,97877.22
2019-02-20T08:38:17.235Z,97894.29
2019-02-20T08:39:20.879Z,97890.77
2019-02-20T08:40:24.522Z,97893.56
2019-02-20T08:41:28.161Z,97893.56
2019-02-20T08:42:31.905Z,97890.28
2019-02-20T08:43:35.505Z,97882.23
2019-02-20T08:44:39.240Z,97882.23
2019-02-20T08:45:42.877Z,97882.69
2019-02-20T08:46:46.522Z,97882.69
2019-02-20T08:47:50.199Z,97887.06
2019-02-20T08:48:54.232Z,97883.22
2019-02-20T08:49:57.874Z,97891.94
2019-02-20T08:51:01.517Z,97879.21
2019-02-20T08:52:05.162Z,97886.16
2019-02-20T08:53:09.314Z,97886.16
2019-02-20T08:54:12.944Z,97880.77
2019-02-20T08:55:18.742Z,97880.77
2019-02-20T08:56:21.990Z,97882.19
2019-02-20T08:57:25.670Z,97877.05
2019-02-20T08:58:29.302Z,97877.05
2019-02-20T08:59:33.022Z,97874.11
2019-02-20T09:00:36.665Z,97876.91
2019-02-20T09:01:40.365Z,97870.94
2019-02-20T09:02:44.032Z,97873.30
2019-02-20T09:03:47.609Z,97878.88
2019-02-20T09:04:51.252Z,97878.88
2019-02-20T09:05:54.902Z,97862.35
2019-02-20T09:06:58.513Z,97862.35
2019-02-20T09:08:02.084Z,97865.88
2019-02-20T09:09:06.713Z,97861.55
2019-02-20T09:10:12.462Z,97866.86
2019-02-20T09:11:16.125Z,97867.53
2019-02-20T09:12:19.776Z,97869.50
2019-02-20T09:13:23.481Z,97869.55
2019-02-20T09:14:27.202Z,97866.12
2019-02-20T09:15:30.782Z,97864.53
2019-02-20T09:16:34.513Z,97862.83
2019-02-20T09:17:38.113Z,97861.39
2019-02-20T09:18:41.788Z,97859.27
2019-02-20T09:19:45.430Z,97864.84
2019-02-20T09:20:49.079Z,97858.94
2019-02-20T09:21:52.717Z,97864.09
2019-02-20T09:22:56.386Z,97859.53
2019-02-20T09:24:00.024Z,97856.92
2019-02-20T09:25:03.671Z,97857.88
2019-02-20T09:26:07.324Z,97854.41
2019-02-20T09:27:10.910Z,97849.25
2019-02-20T09:28:14.596Z,97847.99
2019-02-20T09:29:18.224Z,97844.66
2019-02-20T09:30:28.237Z,97842.42
2019-02-20T09:31:27.239Z,97844.22
2019-02-20T09:32:30.875Z,97845.58
2019-02-20T09:33:34.545Z,97841.73
2019-02-20T09:34:38.192Z,97837.88
2019-02-20T09:35:41.835Z,97841.38
2019-02-20T09:36:45.401Z,97839.72
2019-02-20T09:37:49.043Z,97840.16
2019-02-20T09:38:52.719Z,97833.40
2019-02-20T09:39:56.361Z,97835.87
2019-02-20T09:41:00.012Z,97834.52
2019-02-20T09:42:04.445Z,97835.84
2019-02-20T09:43:08.098Z,97827.00
2019-02-20T09:44:11.759Z,97830.52
2019-02-20T09:45:15.399Z,97832.52
2019-02-20T09:46:19.060Z,97826.59
2019-02-20T09:47:22.678Z,97827.31
2019-02-20T09:48:26.340Z,97821.31
2019-02-20T09:49:29.942Z,97820.73
2019-02-20T09:50:33.582Z,97823.73
2019-02-20T09:51:37.226Z,97824.58
2019-02-20T09:52:40.867Z,97825.85
2019-02-20T09:53:44.441Z,97820.63
2019-02-20T09:54:48.107Z,97818.96
2019-02-20T09:55:52.095Z,97823.63
2019-02-20T09:56:55.769Z,97817.02
2019-02-20T09:57:59.413Z,97814.06
2019-02-20T09:59:03.054Z,97810.82
2019-02-20T10:00:15.056Z,97804.87
2019-02-20T10:01:18.682Z,97804.77
2019-02-20T10:02:22.329Z,97810.23
2019-02-20T10:03:25.904Z,97803.47
2019-02-20T10:04:29.538Z,97807.87
2019-02-20T10:05:33.283Z,97809.33
2019-02-20T10:06:37.237Z,97803.34
2019-02-20T10:07:40.876Z,97798.27
2019-02-20T10:08:44.595Z,97796.11
2019-02-20T10:09:48.158Z,97797.64
2019-02-20T10:10:51.831Z,97792.47
2019-02-20T10:11:55.529Z,97790.77
2019-02-20T10:12:59.111Z,97791.24
2019-02-20T10:14:02.761Z,97788.91
2019-02-20T10:15:12.441Z,97785.39
2019-02-20T10:16:16.124Z,97780.17
2019-02-20T10:17:19.768Z,97777.27
2019-02-20T10:18:23.742Z,97775.67
2019-02-20T10:19:27.397Z,97776.37
2019-02-20T10:20:31.029Z,97772.83
2019-02-20T10:21:34.769Z,97774.26
2019-02-20T10:22:38.420Z,97768.92
2019-02-20T10:23:42.058Z,97769.33
2019-02-20T10:24:45.702Z,97768.30
2019-02-20T10:25:49.293Z,97766.52
2019-02-20T10:27:00.390Z,97763.31
2019-02-20T10:27:58.364Z,97758.98
2019-02-20T10:29:01.996Z,97757.06
2019-02-20T10:30:08.565Z,97758.63
2019-02-20T10:31:12.133Z,97754.75
2019-02-20T10:32:15.891Z,97752.35
2019-02-20T10:33:19.525Z,97756.84
2019-02-20T10:34:23.165Z,97749.23
2019-02-20T10:35:26.942Z,97745.24
2019-02-20T10:36:30.572Z,97745.69
2019-02-20T10:37:34.173Z,97736.59
2019-02-20T10:38:37.811Z,97741.80
2019-02-20T10:39:41.458Z,97742.20
2019-02-20T10:40:45.096Z,97733.94
2019-02-20T10:41:48.659Z,97735.06
2019-02-20T10:42:52.636Z,97731.39
2019-02-20T10:43:56.207Z,97729.99
2019-02-20T10:45:01.243Z,97729.34
2019-02-20T10:46:04.901Z,97720.01
2019-02-20T10:47:08.542Z,97720.41
2019-02-20T10:48:12.586Z,97720.83
2019-02-20T10:49:16.275Z,97708.56
2019-02-20T10:50:19.911Z,97715.36
2019-02-20T10:51:23.551Z,97712.90
2019-02-20T10:52:27.193Z,97709.06
2019-02-20T10:53:30.868Z,97699.44
2019-02-20T10:54:34.508Z,97706.56
2019-02-20T10:55:38.147Z,97709.36
2019-02-20T10:56:41.786Z,97705.52
2019-02-20T10:57:45.427Z,97700.92
2019-02-20T10:58:49.104Z,97695.57
2019-02-20T10:59:52.677Z,97688.81
2019-02-20T11:00:56.304Z,97695.06
2019-02-20T11:02:00.287Z,97698.55
2019-02-20T11:03:03.931Z,97694.96
2019-02-20T11:04:07.594Z,97692.02
2019-02-20T11:05:11.237Z,97694.04
2019-02-20T11:06:14.884Z,97690.89
2019-02-20T11:07:18.447Z,97689.82
2019-02-20T11:08:22.092Z,97684.13
2019-02-20T11:09:25.773Z,97683.70
2019-02-20T11:10:29.409Z,97685.38
2019-02-20T11:11:32.989Z,97679.70
2019-02-20T11:12:36.625Z,97679.67
2019-02-20T11:13:40.270Z,97678.33
2019-02-20T11:14:43.940Z,97677.86
2019-02-20T11:15:47.584Z,97674.96
2019-02-20T11:16:51.452Z,97672.42
2019-02-20T11:17:55.087Z,97667.38
2019-02-20T11:18:58.740Z,97669.95
2019-02-20T11:20:02.605Z,97669.28
2019-02-20T11:21:06.250Z,97665.39
2019-02-20T11:22:09.891Z,97665.33
2019-02-20T11:23:13.905Z,97663.73
2019-02-20T11:24:17.957Z,97662.73
2019-02-20T11:25:21.706Z,97659.31
2019-02-20T11:26:25.350Z,97653.70
2019-02-20T11:27:28.994Z,97647.45
2019-02-20T11:28:32.574Z,97646.47
2019-02-20T11:29:36.226Z,97645.72
2019-02-20T11:30:40.005Z,97638.39
2019-02-20T11:31:43.653Z,97633.64
2019-02-20T11:32:47.656Z,97638.02
2019-02-20T11:33:51.293Z,97636.73
2019-02-20T11:34:55.289Z,97627.94
2019-02-20T11:35:58.883Z,97635.14
2019-02-20T11:37:02.532Z,97633.98
2019-02-20T11:38:06.178Z,97637.28
2019-02-20T11:39:11.609Z,97633.97
2019-02-20T11:40:15.557Z,97629.58
2019-02-20T11:41:19.221Z,97631.39
2019-02-20T11:42:22.913Z,97633.55
2019-02-20T11:43:26.549Z,97622.98
2019-02-20T11:44:30.184Z,97621.98
2019-02-20T11:45:33.756Z,97619.28
2019-02-20T11:46:37.431Z,97614.41
2019-02-20T11:47:41.074Z,97617.55
2019-02-20T11:48:44.726Z,97615.23
2019-02-20T11:49:48.365Z,97615.66
2019-02-20T11:50:51.934Z,97606.75
2019-02-20T11:51:55.611Z,97603.95
2019-02-20T11:52:59.257Z,97599.09
2019-02-20T11:54:03.933Z,97593.05
2019-02-20T11:55:09.530Z,97593.44
2019-02-20T11:56:13.171Z,97595.42
2019-02-20T11:57:16.845Z,97591.43
2019-02-20T11:58:20.497Z,97588.92
2019-02-20T11:59:24.138Z,97580.77
2019-02-20T12:00:27.768Z,97587.85
2019-02-20T12:01:31.346Z,97583.83
2019-02-20T12:02:37.514Z,97578.82
2019-02-20T12:03:40.299Z,97578.53
2019-02-20T12:04:43.944Z,97578.09
2019-02-20T12:05:47.586Z,97583.28
2019-02-20T12:06:51.265Z,97577.98
2019-02-20T12:07:55.255Z,97575.55
2019-02-20T12:08:58.902Z,97572.98
2019-02-20T12:10:02.470Z,97570.41
2019-02-20T12:11:06.219Z,97572.83
2019-02-20T12:12:10.813Z,97569.50
2019-02-20T12:13:14.529Z,97574.23
2019-02-20T12:14:18.114Z,97574.22
2019-02-20T12:15:21.752Z,97573.31
2019-02-20T12:16:27.232Z,97570.27
2019-02-20T12:17:30.844Z,97562.59
2019-02-20T12:18:34.516Z,97559.28
2019-02-20T12:19:39.387Z,97562.58
2019-02-20T12:20:43.178Z,97568.02
2019-02-20T12:21:46.824Z,97569.14
2019-02-20T12:22:50.400Z,97569.05
2019-02-20T12:23:54.068Z,97557.84
2019-02-20T12:24:59.323Z,97562.09
2019-02-20T12:26:03.167Z,97556.53
2019-02-20T12:27:06.808Z,97552.08
2019-02-20T12:28:10.468Z,97555.47
2019-02-20T12:29:14.135Z,97548.16
2019-02-20T12:30:17.770Z,97553.67
2019-02-20T12:31:21.470Z,97555.02
2019-02-20T12:32:25.311Z,97544.13
2019-02-20T12:33:28.949Z,97537.86